sensor_id;sensor_type;location;lat;lon;timestamp;P1;durP1;ratioP1;P2;durP2;ratioP2
56043;SDS011;41912;51.022;3.664;2023-07-31T00:00:36;24.80;;;6.53;;
56043;SDS011;41912;51.022;3.664;2023-07-31T00:03:02;22.85;;;7.20;;
56043;SDS011;41912;51.022;3.664;2023-07-31T00:05:27;20.35;;;6.68;;
56043;SDS011;41912;51.022;3.664;2023-07-31T00:07:53;18.77;;;6.10;;
56043;SDS011;41912;51.022;3.664;2023-07-31T00:10:19;21.95;;;7.25;;
56043;SDS011;41912;51.022;3.664;2023-07-31T00:12:45;22.70;;;6.45;;
56043;SDS011;41912;51.022;3.664;2023-07-31T00:15:11;18.67;;;6.30;;
56043;SDS011;41912;51.022;3.664;2023-07-31T00:17:39;22.80;;;7.65;;
56043;SDS011;41912;51.022;3.664;2023-07-31T00:20:05;22.15;;;6.53;;
56043;SDS011;41912;51.022;3.664;2023-07-31T00:22:30;26.17;;;6.60;;
56043;SDS011;41912;51.022;3.664;2023-07-31T00:24:56;26.35;;;7.53;;
56043;SDS011;41912;51.022;3.664;2023-07-31T00:27:22;30.35;;;7.65;;
56043;SDS011;41912;51.022;3.664;2023-07-31T00:29:48;20.25;;;6.45;;
56043;SDS011;41912;51.022;3.664;2023-07-31T00:32:14;24.80;;;6.75;;
56043;SDS011;41912;51.022;3.664;2023-07-31T00:34:39;17.05;;;6.35;;
56043;SDS011;41912;51.022;3.664;2023-07-31T00:37:05;22.63;;;7.53;;
56043;SDS011;41912;51.022;3.664;2023-07-31T00:39:31;23.65;;;6.18;;
56043;SDS011;41912;51.022;3.664;2023-07-31T00:41:56;25.67;;;6.35;;
56043;SDS011;41912;51.022;3.664;2023-07-31T00:44:22;22.33;;;6.65;;
56043;SDS011;41912;51.022;3.664;2023-07-31T00:46:48;26.52;;;6.15;;
56043;SDS011;41912;51.022;3.664;2023-07-31T00:49:14;20.92;;;6.53;;
56043;SDS011;41912;51.022;3.664;2023-07-31T00:51:40;25.13;;;6.55;;
56043;SDS011;41912;51.022;3.664;2023-07-31T00:54:06;26.38;;;7.35;;
56043;SDS011;41912;51.022;3.664;2023-07-31T00:56:32;24.40;;;6.93;;
56043;SDS011;41912;51.022;3.664;2023-07-31T00:58:58;24.92;;;6.95;;
56043;SDS011;41912;51.022;3.664;2023-07-31T01:01:24;20.38;;;6.28;;
56043;SDS011;41912;51.022;3.664;2023-07-31T01:03:49;20.13;;;6.13;;
56043;SDS011;41912;51.022;3.664;2023-07-31T01:09:19;19.83;;;6.50;;
56043;SDS011;41912;51.022;3.664;2023-07-31T01:12:15;22.92;;;6.30;;
56043;SDS011;41912;51.022;3.664;2023-07-31T01:17:28;17.05;;;5.70;;
56043;SDS011;41912;51.022;3.664;2023-07-31T01:19:55;23.67;;;6.80;;
56043;SDS011;41912;51.022;3.664;2023-07-31T01:27:59;20.50;;;5.47;;
56043;SDS011;41912;51.022;3.664;2023-07-31T01:30:29;17.50;;;5.57;;
56043;SDS011;41912;51.022;3.664;2023-07-31T01:33:01;15.55;;;5.32;;
56043;SDS011;41912;51.022;3.664;2023-07-31T01:35:32;16.52;;;5.07;;
56043;SDS011;41912;51.022;3.664;2023-07-31T01:37:58;17.60;;;5.68;;
56043;SDS011;41912;51.022;3.664;2023-07-31T01:40:24;16.13;;;5.10;;
56043;SDS011;41912;51.022;3.664;2023-07-31T01:42:50;19.85;;;5.50;;
56043;SDS011;41912;51.022;3.664;2023-07-31T01:45:15;19.60;;;6.07;;
56043;SDS011;41912;51.022;3.664;2023-07-31T01:47:41;24.02;;;6.90;;
56043;SDS011;41912;51.022;3.664;2023-07-31T01:50:07;21.27;;;5.78;;
56043;SDS011;41912;51.022;3.664;2023-07-31T01:52:33;20.23;;;5.72;;
56043;SDS011;41912;51.022;3.664;2023-07-31T01:54:58;21.67;;;5.55;;
56043;SDS011;41912;51.022;3.664;2023-07-31T01:57:24;21.23;;;6.03;;
56043;SDS011;41912;51.022;3.664;2023-07-31T01:59:49;16.45;;;5.20;;
56043;SDS011;41912;51.022;3.664;2023-07-31T02:02:15;20.02;;;5.35;;
56043;SDS011;41912;51.022;3.664;2023-07-31T02:04:41;14.13;;;5.05;;
56043;SDS011;41912;51.022;3.664;2023-07-31T02:07:07;17.88;;;5.25;;
56043;SDS011;41912;51.022;3.664;2023-07-31T02:09:32;16.95;;;4.90;;
56043;SDS011;41912;51.022;3.664;2023-07-31T02:11:58;18.67;;;5.30;;
56043;SDS011;41912;51.022;3.664;2023-07-31T02:14:24;21.65;;;5.30;;
56043;SDS011;41912;51.022;3.664;2023-07-31T02:16:50;22.23;;;5.55;;
56043;SDS011;41912;51.022;3.664;2023-07-31T02:19:15;22.88;;;5.57;;
56043;SDS011;41912;51.022;3.664;2023-07-31T02:21:41;22.67;;;6.40;;
56043;SDS011;41912;51.022;3.664;2023-07-31T02:24:06;19.30;;;5.45;;
56043;SDS011;41912;51.022;3.664;2023-07-31T02:26:32;21.95;;;5.40;;
56043;SDS011;41912;51.022;3.664;2023-07-31T02:28:58;19.02;;;6.00;;
56043;SDS011;41912;51.022;3.664;2023-07-31T02:31:23;19.88;;;5.32;;
56043;SDS011;41912;51.022;3.664;2023-07-31T02:33:49;17.17;;;5.20;;
56043;SDS011;41912;51.022;3.664;2023-07-31T02:36:14;20.15;;;5.40;;
56043;SDS011;41912;51.022;3.664;2023-07-31T02:38:40;19.42;;;5.43;;
56043;SDS011;41912;51.022;3.664;2023-07-31T02:41:06;16.92;;;4.68;;
56043;SDS011;41912;51.022;3.664;2023-07-31T02:43:31;15.85;;;5.18;;
56043;SDS011;41912;51.022;3.664;2023-07-31T02:45:57;15.52;;;4.85;;
56043;SDS011;41912;51.022;3.664;2023-07-31T02:48:22;19.77;;;5.05;;
56043;SDS011;41912;51.022;3.664;2023-07-31T02:50:48;19.67;;;4.97;;
56043;SDS011;41912;51.022;3.664;2023-07-31T02:53:14;18.75;;;4.60;;
56043;SDS011;41912;51.022;3.664;2023-07-31T02:55:40;16.67;;;5.13;;
56043;SDS011;41912;51.022;3.664;2023-07-31T02:58:06;14.95;;;4.40;;
56043;SDS011;41912;51.022;3.664;2023-07-31T03:00:31;19.08;;;5.35;;
56043;SDS011;41912;51.022;3.664;2023-07-31T03:02:57;20.65;;;5.72;;
56043;SDS011;41912;51.022;3.664;2023-07-31T03:05:23;17.98;;;5.03;;
56043;SDS011;41912;51.022;3.664;2023-07-31T03:07:48;21.60;;;5.35;;
56043;SDS011;41912;51.022;3.664;2023-07-31T03:10:14;14.52;;;5.13;;
56043;SDS011;41912;51.022;3.664;2023-07-31T03:12:40;19.38;;;5.10;;
56043;SDS011;41912;51.022;3.664;2023-07-31T03:15:05;14.57;;;5.07;;
56043;SDS011;41912;51.022;3.664;2023-07-31T03:17:32;13.02;;;5.20;;
56043;SDS011;41912;51.022;3.664;2023-07-31T03:19:57;15.75;;;4.53;;
56043;SDS011;41912;51.022;3.664;2023-07-31T03:22:25;20.08;;;5.38;;
56043;SDS011;41912;51.022;3.664;2023-07-31T03:24:51;16.27;;;4.93;;
56043;SDS011;41912;51.022;3.664;2023-07-31T03:27:16;23.25;;;5.90;;
56043;SDS011;41912;51.022;3.664;2023-07-31T03:29:43;16.52;;;5.05;;
56043;SDS011;41912;51.022;3.664;2023-07-31T03:32:08;18.30;;;5.32;;
56043;SDS011;41912;51.022;3.664;2023-07-31T03:34:34;20.40;;;5.97;;
56043;SDS011;41912;51.022;3.664;2023-07-31T03:37:00;17.27;;;5.10;;
56043;SDS011;41912;51.022;3.664;2023-07-31T03:39:25;13.10;;;4.47;;
56043;SDS011;41912;51.022;3.664;2023-07-31T03:41:51;15.48;;;5.45;;
56043;SDS011;41912;51.022;3.664;2023-07-31T03:44:16;12.65;;;5.00;;
56043;SDS011;41912;51.022;3.664;2023-07-31T03:46:42;10.63;;;4.63;;
56043;SDS011;41912;51.022;3.664;2023-07-31T03:49:07;13.10;;;5.00;;
56043;SDS011;41912;51.022;3.664;2023-07-31T03:51:33;15.63;;;4.85;;
56043;SDS011;41912;51.022;3.664;2023-07-31T03:53:59;15.10;;;5.38;;
56043;SDS011;41912;51.022;3.664;2023-07-31T03:56:25;20.55;;;5.88;;
56043;SDS011;41912;51.022;3.664;2023-07-31T03:58:50;14.00;;;5.35;;
56043;SDS011;41912;51.022;3.664;2023-07-31T04:01:16;14.38;;;5.05;;
56043;SDS011;41912;51.022;3.664;2023-07-31T04:03:42;17.48;;;5.05;;
56043;SDS011;41912;51.022;3.664;2023-07-31T04:06:08;16.95;;;5.75;;
56043;SDS011;41912;51.022;3.664;2023-07-31T04:08:34;21.67;;;5.72;;
56043;SDS011;41912;51.022;3.664;2023-07-31T04:11:00;14.52;;;5.38;;
56043;SDS011;41912;51.022;3.664;2023-07-31T04:13:26;14.70;;;5.63;;
56043;SDS011;41912;51.022;3.664;2023-07-31T04:15:52;16.05;;;5.35;;
56043;SDS011;41912;51.022;3.664;2023-07-31T04:18:19;19.70;;;5.43;;
56043;SDS011;41912;51.022;3.664;2023-07-31T04:20:45;11.52;;;5.32;;
56043;SDS011;41912;51.022;3.664;2023-07-31T04:23:11;12.57;;;4.97;;
56043;SDS011;41912;51.022;3.664;2023-07-31T04:25:36;14.50;;;5.70;;
56043;SDS011;41912;51.022;3.664;2023-07-31T04:28:02;17.92;;;5.25;;
56043;SDS011;41912;51.022;3.664;2023-07-31T04:30:28;12.27;;;4.40;;
56043;SDS011;41912;51.022;3.664;2023-07-31T04:32:53;12.55;;;4.88;;
56043;SDS011;41912;51.022;3.664;2023-07-31T04:35:19;9.70;;;4.25;;
56043;SDS011;41912;51.022;3.664;2023-07-31T04:37:44;13.65;;;4.45;;
56043;SDS011;41912;51.022;3.664;2023-07-31T04:40:13;7.88;;;3.58;;
56043;SDS011;41912;51.022;3.664;2023-07-31T04:42:39;12.90;;;4.85;;
56043;SDS011;41912;51.022;3.664;2023-07-31T04:45:05;13.88;;;4.40;;
56043;SDS011;41912;51.022;3.664;2023-07-31T04:47:31;10.52;;;4.20;;
56043;SDS011;41912;51.022;3.664;2023-07-31T04:49:56;15.32;;;4.07;;
56043;SDS011;41912;51.022;3.664;2023-07-31T04:52:22;13.65;;;3.92;;
56043;SDS011;41912;51.022;3.664;2023-07-31T04:54:47;12.27;;;3.95;;
56043;SDS011;41912;51.022;3.664;2023-07-31T04:57:13;13.00;;;4.00;;
56043;SDS011;41912;51.022;3.664;2023-07-31T04:59:39;8.52;;;4.25;;
56043;SDS011;41912;51.022;3.664;2023-07-31T05:02:05;11.35;;;3.78;;
56043;SDS011;41912;51.022;3.664;2023-07-31T05:04:32;8.60;;;3.70;;
56043;SDS011;41912;51.022;3.664;2023-07-31T05:06:57;8.75;;;3.33;;
56043;SDS011;41912;51.022;3.664;2023-07-31T05:09:23;8.68;;;3.83;;
56043;SDS011;41912;51.022;3.664;2023-07-31T05:11:48;11.15;;;4.03;;
56043;SDS011;41912;51.022;3.664;2023-07-31T05:14:14;10.60;;;3.92;;
56043;SDS011;41912;51.022;3.664;2023-07-31T05:16:40;9.00;;;4.70;;
56043;SDS011;41912;51.022;3.664;2023-07-31T05:19:06;9.60;;;3.60;;
56043;SDS011;41912;51.022;3.664;2023-07-31T05:21:32;7.63;;;4.05;;
56043;SDS011;41912;51.022;3.664;2023-07-31T05:23:57;15.45;;;4.00;;
56043;SDS011;41912;51.022;3.664;2023-07-31T05:26:23;8.32;;;4.07;;
56043;SDS011;41912;51.022;3.664;2023-07-31T05:28:49;10.95;;;4.55;;
56043;SDS011;41912;51.022;3.664;2023-07-31T05:31:14;12.13;;;4.32;;
56043;SDS011;41912;51.022;3.664;2023-07-31T05:33:40;8.65;;;4.10;;
56043;SDS011;41912;51.022;3.664;2023-07-31T05:36:05;16.00;;;4.32;;
56043;SDS011;41912;51.022;3.664;2023-07-31T05:38:31;9.48;;;4.07;;
56043;SDS011;41912;51.022;3.664;2023-07-31T05:40:57;9.77;;;4.03;;
56043;SDS011;41912;51.022;3.664;2023-07-31T05:43:22;8.90;;;3.95;;
56043;SDS011;41912;51.022;3.664;2023-07-31T05:45:48;7.07;;;3.80;;
56043;SDS011;41912;51.022;3.664;2023-07-31T05:48:13;8.10;;;4.03;;
56043;SDS011;41912;51.022;3.664;2023-07-31T05:50:39;12.27;;;4.35;;
56043;SDS011;41912;51.022;3.664;2023-07-31T05:53:05;11.73;;;4.47;;
56043;SDS011;41912;51.022;3.664;2023-07-31T05:55:32;10.40;;;4.28;;
56043;SDS011;41912;51.022;3.664;2023-07-31T05:57:58;16.10;;;5.28;;
56043;SDS011;41912;51.022;3.664;2023-07-31T06:00:24;12.65;;;3.95;;
56043;SDS011;41912;51.022;3.664;2023-07-31T06:02:49;12.93;;;4.38;;
56043;SDS011;41912;51.022;3.664;2023-07-31T06:05:15;8.60;;;3.78;;
56043;SDS011;41912;51.022;3.664;2023-07-31T06:07:41;10.90;;;3.92;;
56043;SDS011;41912;51.022;3.664;2023-07-31T06:10:06;12.25;;;4.80;;
56043;SDS011;41912;51.022;3.664;2023-07-31T06:12:33;12.25;;;4.15;;
56043;SDS011;41912;51.022;3.664;2023-07-31T06:14:59;9.82;;;4.38;;
56043;SDS011;41912;51.022;3.664;2023-07-31T06:17:25;14.43;;;4.35;;
56043;SDS011;41912;51.022;3.664;2023-07-31T06:19:51;10.48;;;4.18;;
56043;SDS011;41912;51.022;3.664;2023-07-31T06:22:17;13.80;;;4.32;;
56043;SDS011;41912;51.022;3.664;2023-07-31T06:24:43;9.93;;;3.72;;
56043;SDS011;41912;51.022;3.664;2023-07-31T06:27:09;13.73;;;4.35;;
56043;SDS011;41912;51.022;3.664;2023-07-31T06:29:35;12.20;;;4.15;;
56043;SDS011;41912;51.022;3.664;2023-07-31T06:32:01;9.70;;;3.97;;
56043;SDS011;41912;51.022;3.664;2023-07-31T06:34:26;9.20;;;3.97;;
56043;SDS011;41912;51.022;3.664;2023-07-31T06:36:55;15.82;;;5.20;;
56043;SDS011;41912;51.022;3.664;2023-07-31T06:39:21;11.10;;;3.88;;
56043;SDS011;41912;51.022;3.664;2023-07-31T06:41:47;13.25;;;4.35;;
56043;SDS011;41912;51.022;3.664;2023-07-31T06:44:12;12.93;;;4.20;;
56043;SDS011;41912;51.022;3.664;2023-07-31T06:46:38;11.57;;;4.22;;
56043;SDS011;41912;51.022;3.664;2023-07-31T06:49:04;16.55;;;4.70;;
56043;SDS011;41912;51.022;3.664;2023-07-31T06:51:29;14.15;;;4.47;;
56043;SDS011;41912;51.022;3.664;2023-07-31T06:53:56;14.18;;;4.57;;
56043;SDS011;41912;51.022;3.664;2023-07-31T06:56:25;10.57;;;4.78;;
56043;SDS011;41912;51.022;3.664;2023-07-31T06:58:51;12.63;;;5.20;;
56043;SDS011;41912;51.022;3.664;2023-07-31T07:01:16;9.95;;;3.83;;
56043;SDS011;41912;51.022;3.664;2023-07-31T07:03:42;10.13;;;4.43;;
56043;SDS011;41912;51.022;3.664;2023-07-31T07:06:08;11.07;;;4.63;;
56043;SDS011;41912;51.022;3.664;2023-07-31T07:08:33;14.98;;;4.07;;
56043;SDS011;41912;51.022;3.664;2023-07-31T07:10:59;8.60;;;3.55;;
56043;SDS011;41912;51.022;3.664;2023-07-31T07:13:24;10.90;;;3.78;;
56043;SDS011;41912;51.022;3.664;2023-07-31T07:15:50;10.88;;;4.00;;
56043;SDS011;41912;51.022;3.664;2023-07-31T07:18:16;8.50;;;3.90;;
56043;SDS011;41912;51.022;3.664;2023-07-31T07:20:49;7.63;;;4.00;;
56043;SDS011;41912;51.022;3.664;2023-07-31T07:23:16;7.88;;;3.40;;
56043;SDS011;41912;51.022;3.664;2023-07-31T07:25:42;12.82;;;4.07;;
56043;SDS011;41912;51.022;3.664;2023-07-31T07:28:08;10.00;;;3.75;;
56043;SDS011;41912;51.022;3.664;2023-07-31T07:30:35;8.88;;;3.55;;
56043;SDS011;41912;51.022;3.664;2023-07-31T07:33:00;12.15;;;4.65;;
56043;SDS011;41912;51.022;3.664;2023-07-31T07:35:26;16.98;;;4.85;;
56043;SDS011;41912;51.022;3.664;2023-07-31T07:37:52;8.43;;;3.53;;
56043;SDS011;41912;51.022;3.664;2023-07-31T07:40:18;10.13;;;3.58;;
56043;SDS011;41912;51.022;3.664;2023-07-31T07:42:44;9.30;;;3.30;;
56043;SDS011;41912;51.022;3.664;2023-07-31T07:45:10;7.07;;;3.10;;
56043;SDS011;41912;51.022;3.664;2023-07-31T07:47:35;7.55;;;3.40;;
56043;SDS011;41912;51.022;3.664;2023-07-31T07:50:03;7.22;;;3.13;;
56043;SDS011;41912;51.022;3.664;2023-07-31T07:52:29;4.82;;;2.65;;
56043;SDS011;41912;51.022;3.664;2023-07-31T07:54:54;9.48;;;2.90;;
56043;SDS011;41912;51.022;3.664;2023-07-31T07:57:20;7.65;;;3.05;;
56043;SDS011;41912;51.022;3.664;2023-07-31T07:59:46;5.65;;;2.70;;
56043;SDS011;41912;51.022;3.664;2023-07-31T08:02:11;13.95;;;2.83;;
56043;SDS011;41912;51.022;3.664;2023-07-31T08:04:37;6.63;;;3.08;;
56043;SDS011;41912;51.022;3.664;2023-07-31T08:07:03;8.30;;;2.67;;
56043;SDS011;41912;51.022;3.664;2023-07-31T08:09:28;9.38;;;2.60;;
56043;SDS011;41912;51.022;3.664;2023-07-31T08:11:54;11.73;;;2.88;;
56043;SDS011;41912;51.022;3.664;2023-07-31T08:14:22;5.60;;;2.20;;
56043;SDS011;41912;51.022;3.664;2023-07-31T08:16:47;6.68;;;2.45;;
56043;SDS011;41912;51.022;3.664;2023-07-31T08:19:13;8.50;;;2.55;;
56043;SDS011;41912;51.022;3.664;2023-07-31T08:21:38;7.55;;;2.78;;
56043;SDS011;41912;51.022;3.664;2023-07-31T08:24:04;6.10;;;2.53;;
56043;SDS011;41912;51.022;3.664;2023-07-31T08:26:30;5.93;;;2.40;;
56043;SDS011;41912;51.022;3.664;2023-07-31T08:28:55;6.05;;;2.50;;
56043;SDS011;41912;51.022;3.664;2023-07-31T08:31:24;5.97;;;2.30;;
56043;SDS011;41912;51.022;3.664;2023-07-31T08:33:49;3.70;;;2.17;;
56043;SDS011;41912;51.022;3.664;2023-07-31T08:36:15;4.82;;;2.30;;
56043;SDS011;41912;51.022;3.664;2023-07-31T08:38:41;6.32;;;2.20;;
56043;SDS011;41912;51.022;3.664;2023-07-31T08:41:06;2.63;;;1.92;;
56043;SDS011;41912;51.022;3.664;2023-07-31T08:43:32;4.82;;;2.30;;
56043;SDS011;41912;51.022;3.664;2023-07-31T08:45:58;7.45;;;2.60;;
56043;SDS011;41912;51.022;3.664;2023-07-31T08:48:24;5.43;;;2.55;;
56043;SDS011;41912;51.022;3.664;2023-07-31T08:50:51;3.88;;;2.30;;
56043;SDS011;41912;51.022;3.664;2023-07-31T08:53:18;5.40;;;2.35;;
56043;SDS011;41912;51.022;3.664;2023-07-31T08:55:44;5.60;;;2.63;;
56043;SDS011;41912;51.022;3.664;2023-07-31T08:58:09;5.70;;;2.65;;
56043;SDS011;41912;51.022;3.664;2023-07-31T09:00:37;5.35;;;2.40;;
56043;SDS011;41912;51.022;3.664;2023-07-31T09:03:17;6.43;;;2.60;;
56043;SDS011;41912;51.022;3.664;2023-07-31T09:05:45;3.88;;;2.20;;
56043;SDS011;41912;51.022;3.664;2023-07-31T09:08:12;6.95;;;2.80;;
56043;SDS011;41912;51.022;3.664;2023-07-31T09:10:42;9.35;;;2.63;;
56043;SDS011;41912;51.022;3.664;2023-07-31T09:13:09;6.68;;;2.75;;
56043;SDS011;41912;51.022;3.664;2023-07-31T09:15:36;8.75;;;2.90;;
56043;SDS011;41912;51.022;3.664;2023-07-31T09:18:03;5.93;;;2.70;;
56043;SDS011;41912;51.022;3.664;2023-07-31T09:20:30;7.00;;;3.30;;
56043;SDS011;41912;51.022;3.664;2023-07-31T09:23:08;6.05;;;3.03;;
56043;SDS011;41912;51.022;3.664;2023-07-31T09:25:39;7.63;;;3.00;;
56043;SDS011;41912;51.022;3.664;2023-07-31T09:28:08;5.32;;;2.80;;
56043;SDS011;41912;51.022;3.664;2023-07-31T09:30:48;4.95;;;2.83;;
56043;SDS011;41912;51.022;3.664;2023-07-31T09:33:15;7.75;;;3.45;;
56043;SDS011;41912;51.022;3.664;2023-07-31T09:35:41;6.85;;;2.88;;
56043;SDS011;41912;51.022;3.664;2023-07-31T09:38:12;6.03;;;3.20;;
56043;SDS011;41912;51.022;3.664;2023-07-31T09:40:39;13.75;;;3.97;;
56043;SDS011;41912;51.022;3.664;2023-07-31T09:43:08;7.18;;;3.08;;
56043;SDS011;41912;51.022;3.664;2023-07-31T09:45:36;9.05;;;3.35;;
56043;SDS011;41912;51.022;3.664;2023-07-31T09:48:03;10.70;;;3.50;;
56043;SDS011;41912;51.022;3.664;2023-07-31T09:50:34;10.52;;;4.22;;
56043;SDS011;41912;51.022;3.664;2023-07-31T09:53:06;5.55;;;3.28;;
56043;SDS011;41912;51.022;3.664;2023-07-31T09:55:33;6.15;;;3.53;;
56043;SDS011;41912;51.022;3.664;2023-07-31T09:58:03;10.20;;;3.80;;
56043;SDS011;41912;51.022;3.664;2023-07-31T10:00:33;8.77;;;4.18;;
56043;SDS011;41912;51.022;3.664;2023-07-31T10:02:59;14.65;;;3.30;;
56043;SDS011;41912;51.022;3.664;2023-07-31T10:05:36;11.40;;;3.83;;
56043;SDS011;41912;51.022;3.664;2023-07-31T10:08:15;8.85;;;3.58;;
56043;SDS011;41912;51.022;3.664;2023-07-31T10:10:43;6.78;;;3.35;;
56043;SDS011;41912;51.022;3.664;2023-07-31T10:13:09;7.53;;;4.05;;
56043;SDS011;41912;51.022;3.664;2023-07-31T10:15:35;6.88;;;3.35;;
56043;SDS011;41912;51.022;3.664;2023-07-31T10:18:01;10.15;;;3.58;;
56043;SDS011;41912;51.022;3.664;2023-07-31T10:20:30;7.20;;;3.58;;
56043;SDS011;41912;51.022;3.664;2023-07-31T10:22:57;6.90;;;3.28;;
56043;SDS011;41912;51.022;3.664;2023-07-31T10:25:24;9.43;;;4.22;;
56043;SDS011;41912;51.022;3.664;2023-07-31T10:27:52;8.80;;;4.25;;
56043;SDS011;41912;51.022;3.664;2023-07-31T10:30:21;9.43;;;3.80;;
56043;SDS011;41912;51.022;3.664;2023-07-31T10:32:49;8.82;;;4.07;;
56043;SDS011;41912;51.022;3.664;2023-07-31T10:35:18;9.60;;;4.50;;
56043;SDS011;41912;51.022;3.664;2023-07-31T10:37:44;7.40;;;4.00;;
56043;SDS011;41912;51.022;3.664;2023-07-31T10:40:10;7.88;;;4.60;;
56043;SDS011;41912;51.022;3.664;2023-07-31T10:42:45;10.73;;;4.15;;
56043;SDS011;41912;51.022;3.664;2023-07-31T10:45:34;9.23;;;4.57;;
56043;SDS011;41912;51.022;3.664;2023-07-31T10:48:05;7.07;;;3.30;;
56043;SDS011;41912;51.022;3.664;2023-07-31T10:50:33;10.02;;;4.60;;
56043;SDS011;41912;51.022;3.664;2023-07-31T10:53:02;10.77;;;4.00;;
56043;SDS011;41912;51.022;3.664;2023-07-31T10:55:32;11.18;;;4.80;;
56043;SDS011;41912;51.022;3.664;2023-07-31T10:58:08;10.40;;;3.85;;
56043;SDS011;41912;51.022;3.664;2023-07-31T11:00:38;6.72;;;3.92;;
56043;SDS011;41912;51.022;3.664;2023-07-31T11:03:09;8.10;;;4.00;;
56043;SDS011;41912;51.022;3.664;2023-07-31T11:05:43;8.68;;;3.45;;
56043;SDS011;41912;51.022;3.664;2023-07-31T11:10:41;9.35;;;3.85;;
56043;SDS011;41912;51.022;3.664;2023-07-31T11:13:08;11.77;;;3.63;;
56043;SDS011;41912;51.022;3.664;2023-07-31T11:15:33;9.27;;;3.92;;
56043;SDS011;41912;51.022;3.664;2023-07-31T11:18:02;6.65;;;3.80;;
56043;SDS011;41912;51.022;3.664;2023-07-31T11:20:30;9.10;;;3.10;;
56043;SDS011;41912;51.022;3.664;2023-07-31T11:23:03;5.13;;;3.22;;
56043;SDS011;41912;51.022;3.664;2023-07-31T11:25:31;8.52;;;3.70;;
56043;SDS011;41912;51.022;3.664;2023-07-31T11:28:06;6.97;;;3.42;;
56043;SDS011;41912;51.022;3.664;2023-07-31T11:30:38;5.72;;;3.00;;
56043;SDS011;41912;51.022;3.664;2023-07-31T11:33:09;7.88;;;3.63;;
56043;SDS011;41912;51.022;3.664;2023-07-31T11:35:47;7.97;;;3.33;;
56043;SDS011;41912;51.022;3.664;2023-07-31T11:41:03;8.52;;;3.42;;
56043;SDS011;41912;51.022;3.664;2023-07-31T11:43:32;7.88;;;3.38;;
56043;SDS011;41912;51.022;3.664;2023-07-31T11:45:58;9.70;;;3.70;;
56043;SDS011;41912;51.022;3.664;2023-07-31T11:48:34;8.40;;;3.80;;
56043;SDS011;41912;51.022;3.664;2023-07-31T11:56:29;10.75;;;3.90;;
56043;SDS011;41912;51.022;3.664;2023-07-31T11:58:57;9.82;;;4.13;;
56043;SDS011;41912;51.022;3.664;2023-07-31T12:01:24;8.10;;;3.78;;
56043;SDS011;41912;51.022;3.664;2023-07-31T12:03:55;11.18;;;4.82;;
56043;SDS011;41912;51.022;3.664;2023-07-31T12:06:21;11.95;;;3.65;;
56043;SDS011;41912;51.022;3.664;2023-07-31T12:09:00;11.07;;;4.38;;
56043;SDS011;41912;51.022;3.664;2023-07-31T12:11:30;10.00;;;3.75;;
56043;SDS011;41912;51.022;3.664;2023-07-31T12:13:55;9.20;;;3.90;;
56043;SDS011;41912;51.022;3.664;2023-07-31T12:16:22;8.55;;;4.03;;
56043;SDS011;41912;51.022;3.664;2023-07-31T12:18:52;9.90;;;3.53;;
56043;SDS011;41912;51.022;3.664;2023-07-31T12:21:18;10.88;;;4.65;;
56043;SDS011;41912;51.022;3.664;2023-07-31T12:23:44;14.20;;;4.50;;
56043;SDS011;41912;51.022;3.664;2023-07-31T12:26:12;8.38;;;4.68;;
56043;SDS011;41912;51.022;3.664;2023-07-31T12:28:49;15.23;;;5.32;;
56043;SDS011;41912;51.022;3.664;2023-07-31T12:31:21;10.00;;;5.45;;
56043;SDS011;41912;51.022;3.664;2023-07-31T12:33:48;8.77;;;5.50;;
56043;SDS011;41912;51.022;3.664;2023-07-31T12:36:20;18.10;;;5.55;;
56043;SDS011;41912;51.022;3.664;2023-07-31T12:41:14;8.85;;;4.57;;
56043;SDS011;41912;51.022;3.664;2023-07-31T12:43:40;15.27;;;5.63;;
56043;SDS011;41912;51.022;3.664;2023-07-31T12:46:07;8.63;;;5.13;;
56043;SDS011;41912;51.022;3.664;2023-07-31T12:48:34;12.88;;;4.80;;
56043;SDS011;41912;51.022;3.664;2023-07-31T12:51:00;9.63;;;4.22;;
56043;SDS011;41912;51.022;3.664;2023-07-31T12:53:27;6.20;;;3.67;;
56043;SDS011;41912;51.022;3.664;2023-07-31T12:55:53;10.73;;;4.10;;
56043;SDS011;41912;51.022;3.664;2023-07-31T12:58:20;6.28;;;3.40;;
56043;SDS011;41912;51.022;3.664;2023-07-31T13:00:46;9.00;;;3.70;;
56043;SDS011;41912;51.022;3.664;2023-07-31T13:03:12;7.80;;;3.33;;
56043;SDS011;41912;51.022;3.664;2023-07-31T13:05:37;5.53;;;3.33;;
56043;SDS011;41912;51.022;3.664;2023-07-31T13:08:03;6.63;;;2.92;;
56043;SDS011;41912;51.022;3.664;2023-07-31T13:10:29;5.32;;;2.90;;
56043;SDS011;41912;51.022;3.664;2023-07-31T13:12:55;8.13;;;2.92;;
56043;SDS011;41912;51.022;3.664;2023-07-31T13:15:21;4.90;;;2.85;;
56043;SDS011;41912;51.022;3.664;2023-07-31T13:17:46;4.63;;;2.70;;
56043;SDS011;41912;51.022;3.664;2023-07-31T13:20:12;3.75;;;2.03;;
56043;SDS011;41912;51.022;3.664;2023-07-31T13:22:38;6.85;;;2.50;;
56043;SDS011;41912;51.022;3.664;2023-07-31T13:25:04;5.72;;;2.20;;
56043;SDS011;41912;51.022;3.664;2023-07-31T13:27:31;5.97;;;1.95;;
56043;SDS011;41912;51.022;3.664;2023-07-31T13:29:56;4.03;;;2.08;;
56043;SDS011;41912;51.022;3.664;2023-07-31T13:32:22;5.95;;;2.13;;
56043;SDS011;41912;51.022;3.664;2023-07-31T13:34:48;5.38;;;1.83;;
56043;SDS011;41912;51.022;3.664;2023-07-31T13:37:14;3.10;;;1.60;;
56043;SDS011;41912;51.022;3.664;2023-07-31T13:39:41;3.53;;;1.75;;
56043;SDS011;41912;51.022;3.664;2023-07-31T13:42:08;4.25;;;1.80;;
56043;SDS011;41912;51.022;3.664;2023-07-31T13:44:37;4.07;;;1.90;;
56043;SDS011;41912;51.022;3.664;2023-07-31T13:47:07;5.22;;;2.08;;
56043;SDS011;41912;51.022;3.664;2023-07-31T13:49:34;7.60;;;2.38;;
56043;SDS011;41912;51.022;3.664;2023-07-31T13:52:00;3.45;;;2.08;;
56043;SDS011;41912;51.022;3.664;2023-07-31T13:54:26;5.22;;;2.00;;
56043;SDS011;41912;51.022;3.664;2023-07-31T13:56:52;4.80;;;2.25;;
56043;SDS011;41912;51.022;3.664;2023-07-31T13:59:18;5.57;;;2.78;;
56043;SDS011;41912;51.022;3.664;2023-07-31T14:01:44;6.13;;;2.78;;
56043;SDS011;41912;51.022;3.664;2023-07-31T14:04:09;5.93;;;2.58;;
56043;SDS011;41912;51.022;3.664;2023-07-31T14:06:35;7.32;;;2.78;;
56043;SDS011;41912;51.022;3.664;2023-07-31T14:09:01;5.95;;;2.75;;
56043;SDS011;41912;51.022;3.664;2023-07-31T14:11:27;6.65;;;2.90;;
56043;SDS011;41912;51.022;3.664;2023-07-31T14:13:53;5.97;;;2.70;;
56043;SDS011;41912;51.022;3.664;2023-07-31T14:16:19;7.35;;;2.53;;
56043;SDS011;41912;51.022;3.664;2023-07-31T14:18:44;5.45;;;2.83;;
56043;SDS011;41912;51.022;3.664;2023-07-31T14:21:13;5.28;;;2.70;;
56043;SDS011;41912;51.022;3.664;2023-07-31T14:23:39;6.45;;;2.83;;
56043;SDS011;41912;51.022;3.664;2023-07-31T14:26:04;6.43;;;2.88;;
56043;SDS011;41912;51.022;3.664;2023-07-31T14:28:30;6.05;;;2.53;;
56043;SDS011;41912;51.022;3.664;2023-07-31T14:30:56;4.97;;;2.40;;
56043;SDS011;41912;51.022;3.664;2023-07-31T14:33:22;8.32;;;2.58;;
56043;SDS011;41912;51.022;3.664;2023-07-31T14:35:47;5.45;;;2.25;;
56043;SDS011;41912;51.022;3.664;2023-07-31T14:38:13;6.88;;;2.30;;
56043;SDS011;41912;51.022;3.664;2023-07-31T14:40:38;4.72;;;2.22;;
56043;SDS011;41912;51.022;3.664;2023-07-31T14:43:04;6.65;;;2.22;;
56043;SDS011;41912;51.022;3.664;2023-07-31T14:45:30;10.05;;;2.08;;
56043;SDS011;41912;51.022;3.664;2023-07-31T14:47:55;5.05;;;2.28;;
56043;SDS011;41912;51.022;3.664;2023-07-31T14:50:21;3.67;;;2.15;;
56043;SDS011;41912;51.022;3.664;2023-07-31T14:52:48;6.90;;;1.80;;
56043;SDS011;41912;51.022;3.664;2023-07-31T14:55:14;4.43;;;1.95;;
56043;SDS011;41912;51.022;3.664;2023-07-31T14:57:39;3.88;;;1.80;;
56043;SDS011;41912;51.022;3.664;2023-07-31T15:00:05;3.20;;;1.77;;
56043;SDS011;41912;51.022;3.664;2023-07-31T15:02:35;3.92;;;1.65;;